Time;durP1;ratioP1;P1;durP2;ratioP2;P2;SDS_P1;SDS_P2;PMS_P1;PMS_P2;Temp;Humidity;BMP_temperature;BMP_pressure;BME280_temperature;BME280_humidity;BME280_pressure;Samples;Min_cycle;Max_cycle;Signal;HPM_P1;HPM_P2
2021/05/16 00:01:48;;;;;;;11.95;8.68;;;13.50;1.00;;;;;;4992613;28;20027;-80
2021/05/16 00:04:14;;;;;;;6.03;5.43;;;14.00;1.00;;;;;;4993332;28;20034;-81
2021/05/16 00:06:39;;;;;;;6.35;5.43;;;13.70;1.00;;;;;;4992552;28;20027;-81
2021/05/16 00:09:05;;;;;;;7.20;5.70;;;13.50;1.00;;;;;;4973608;28;20037;-81
2021/05/16 00:11:31;;;;;;;6.40;5.45;;;13.40;1.00;;;;;;4994587;28;20487;-81
2021/05/16 00:13:57;;;;;;;6.95;5.22;;;13.40;1.00;;;;;;4991741;28;20035;-81
2021/05/16 00:16:22;;;;;;;6.78;5.70;;;13.40;1.00;;;;;;4992404;28;20039;-81
2021/05/16 00:18:48;;;;;;;9.00;6.30;;;13.40;1.00;;;;;;4992321;28;20036;-81
2021/05/16 00:21:14;;;;;;;7.88;6.07;;;13.40;1.00;;;;;;4992366;28;20056;-81
2021/05/16 00:23:39;;;;;;;6.22;5.65;;;13.50;1.00;;;;;;4993205;28;20026;-81
2021/05/16 00:26:05;;;;;;;6.40;5.80;;;14.00;1.00;;;;;;4993620;28;20109;-81
2021/05/16 00:28:31;;;;;;;6.95;6.25;;;13.50;1.00;;;;;;4992357;28;20034;-81
2021/05/16 00:30:58;;;;;;;6.28;5.60;;;13.50;1.00;;;;;;4992027;28;20108;-81
2021/05/16 00:33:23;;;;;;;6.60;5.90;;;13.60;1.00;;;;;;4992182;28;20402;-81
2021/05/16 00:35:49;;;;;;;6.80;6.10;;;13.30;1.00;;;;;;4992577;28;20031;-81
2021/05/16 00:38:15;;;;;;;6.95;5.97;;;13.30;1.00;;;;;;4993750;28;20434;-81
2021/05/16 00:40:40;;;;;;;6.88;5.85;;;13.40;1.00;;;;;;4991890;28;20033;-81
2021/05/16 00:43:06;;;;;;;6.88;5.90;;;13.60;1.00;;;;;;4992285;28;20097;-81
2021/05/16 00:45:32;;;;;;;6.57;5.68;;;13.80;1.00;;;;;;4991912;28;20037;-81
2021/05/16 00:48:01;;;;;;;6.85;6.03;;;13.60;1.00;;;;;;4991518;28;20046;-81
2021/05/16 00:50:30;;;;;;;9.10;6.82;;;13.30;1.00;;;;;;4994104;28;20030;-81
2021/05/16 00:52:56;;;;;;;7.60;6.80;;;13.30;1.00;;;;;;4989908;28;20050;-81
2021/05/16 00:55:23;;;;;;;7.85;7.05;;;13.40;1.00;;;;;;4991454;28;20109;-81
2021/05/16 00:57:49;;;;;;;8.85;6.97;;;13.50;1.00;;;;;;4992130;28;20181;-81
2021/05/16 01:00:18;;;;;;;7.38;6.60;;;13.50;1.00;;;;;;4991929;28;20475;-81
2021/05/16 01:02:44;;;;;;;8.13;7.32;;;13.50;1.00;;;;;;4991566;28;20061;-81
2021/05/16 01:05:13;;;;;;;8.07;6.82;;;13.70;1.00;;;;;;4993508;28;20065;-81
2021/05/16 01:07:39;;;;;;;8.80;6.50;;;13.50;1.00;;;;;;4990893;28;20034;-81
2021/05/16 01:10:07;;;;;;;7.82;7.05;;;13.80;1.00;;;;;;4991147;28;20045;-81
2021/05/16 01:12:41;;;;;;;10.50;7.18;;;13.50;1.00;;;;;;4991223;28;20038;-80
2021/05/16 01:15:09;;;;;;;9.93;7.13;;;13.50;1.00;;;;;;4959712;28;20049;-81
2021/05/16 01:17:35;;;;;;;7.78;6.57;;;13.50;1.00;;;;;;4992632;28;20139;-81
2021/05/16 01:20:01;;;;;;;7.55;6.85;;;13.60;1.00;;;;;;4992406;28;20026;-81
2021/05/16 01:22:27;;;;;;;9.13;7.30;;;13.60;1.00;;;;;;4990804;28;20100;-81
2021/05/16 01:24:52;;;;;;;14.05;7.43;;;13.40;1.00;;;;;;4991068;28;20057;-81
2021/05/16 01:27:20;;;;;;;7.93;6.60;;;13.60;1.00;;;;;;4990314;28;20034;-81
2021/05/16 01:29:45;;;;;;;9.48;6.65;;;13.40;1.00;;;;;;4991755;28;20022;-81
2021/05/16 01:32:11;;;;;;;7.10;6.30;;;13.80;1.00;;;;;;4991039;28;20042;-81
2021/05/16 01:34:40;;;;;;;8.55;6.55;;;13.60;1.00;;;;;;4991355;28;20049;-81
2021/05/16 01:37:06;;;;;;;11.32;7.95;;;13.50;1.00;;;;;;4990515;28;20037;-81
2021/05/16 01:39:32;;;;;;;9.27;6.40;;;13.60;1.00;;;;;;4991018;28;20403;-81
2021/05/16 01:41:58;;;;;;;7.55;6.78;;;13.60;1.00;;;;;;4991147;28;20022;-81
2021/05/16 01:44:24;;;;;;;8.20;6.25;;;13.60;1.00;;;;;;4992953;28;20034;-81
2021/05/16 01:46:50;;;;;;;8.98;6.65;;;14.10;1.00;;;;;;4990596;28;20026;-81
2021/05/16 01:49:16;;;;;;;9.73;6.80;;;13.70;1.00;;;;;;4991072;28;20085;-81
2021/05/16 01:51:41;;;;;;;8.68;6.80;;;13.60;1.00;;;;;;4990755;28;20066;-81
2021/05/16 01:54:07;;;;;;;6.45;5.68;;;13.90;1.00;;;;;;4990783;28;20128;-81
2021/05/16 01:56:33;;;;;;;9.10;7.15;;;14.10;1.00;;;;;;4992536;28;20027;-81
2021/05/16 01:58:59;;;;;;;9.30;6.90;;;13.60;1.00;;;;;;4991087;28;20041;-81
2021/05/16 02:01:25;;;;;;;8.32;7.15;;;13.60;1.00;;;;;;4990397;28;20058;-81
2021/05/16 02:03:52;;;;;;;8.23;7.03;;;13.50;1.00;;;;;;4990535;28;20109;-81
2021/05/16 02:06:18;;;;;;;9.27;7.35;;;13.70;1.00;;;;;;4989132;28;20030;-81
2021/05/16 02:08:45;;;;;;;10.52;6.90;;;13.40;1.00;;;;;;4991683;28;20033;-81
2021/05/16 02:11:11;;;;;;;8.30;6.70;;;13.70;1.00;;;;;;4990135;28;20562;-81
2021/05/16 02:13:41;;;;;;;8.57;7.22;;;13.90;1.00;;;;;;4990166;28;20042;-81
2021/05/16 02:16:09;;;;;;;7.75;7.00;;;13.40;1.00;;;;;;4990163;28;20526;-81
2021/05/16 02:18:34;;;;;;;8.13;7.28;;;13.40;1.00;;;;;;4990724;28;20418;-81
2021/05/16 02:21:01;;;;;;;7.97;6.78;;;13.50;1.00;;;;;;4974716;28;20015;-81
2021/05/16 02:23:27;;;;;;;9.80;7.07;;;13.50;1.00;;;;;;4992376;28;20497;-81
2021/05/16 02:25:53;;;;;;;8.27;7.18;;;13.50;1.00;;;;;;4990395;28;20113;-81
2021/05/16 02:28:19;;;;;;;9.00;6.90;;;13.60;1.00;;;;;;4990169;28;20042;-81
2021/05/16 02:30:45;;;;;;;7.03;6.32;;;13.90;1.00;;;;;;4990462;28;20034;-81
2021/05/16 02:33:12;;;;;;;8.45;6.93;;;13.60;1.00;;;;;;4990623;28;20038;-81
2021/05/16 02:35:37;;;;;;;10.38;6.75;;;14.10;1.00;;;;;;4991175;28;20072;-81
2021/05/16 02:38:04;;;;;;;8.30;6.65;;;13.70;1.00;;;;;;4990747;28;20026;-81
2021/05/16 02:40:30;;;;;;;7.70;6.70;;;13.70;1.00;;;;;;4990286;28;20031;-81
2021/05/16 02:42:56;;;;;;;9.35;6.85;;;13.70;1.00;;;;;;4990033;28;20030;-81
2021/05/16 02:45:22;;;;;;;7.00;6.30;;;13.70;1.00;;;;;;4988889;28;20066;-81
2021/05/16 02:47:48;;;;;;;6.93;6.22;;;13.70;1.00;;;;;;4990724;28;20053;-81
2021/05/16 02:50:15;;;;;;;9.57;6.80;;;13.80;1.00;;;;;;4990272;28;20030;-81
2021/05/16 02:52:41;;;;;;;7.93;6.90;;;13.60;1.00;;;;;;4989732;28;20042;-81
2021/05/16 02:55:07;;;;;;;7.88;6.57;;;13.70;1.00;;;;;;4989965;28;20044;-81
2021/05/16 02:57:33;;;;;;;8.05;6.78;;;13.70;1.00;;;;;;4990097;28;20061;-81
2021/05/16 02:59:58;;;;;;;7.28;6.53;;;13.90;1.00;;;;;;4990165;28;20117;-81
2021/05/16 03:02:24;;;;;;;8.00;6.65;;;13.70;1.00;;;;;;4991827;28;20471;-81
2021/05/16 03:04:49;;;;;;;7.18;6.40;;;13.60;1.00;;;;;;4989715;28;20513;-81
2021/05/16 03:07:15;;;;;;;8.73;6.68;;;14.00;1.00;;;;;;4989955;28;20030;-81
2021/05/16 03:09:41;;;;;;;8.20;6.93;;;14.10;1.00;;;;;;4989736;28;20105;-81
2021/05/16 03:12:07;;;;;;;8.20;7.25;;;13.60;1.00;;;;;;4989688;28;20078;-81
2021/05/16 03:14:34;;;;;;;8.05;7.18;;;13.60;1.00;;;;;;4991807;28;20365;-81
2021/05/16 03:17:00;;;;;;;7.85;6.60;;;13.70;1.00;;;;;;4989900;28;20043;-80
2021/05/16 03:19:26;;;;;;;6.97;5.97;;;13.40;1.00;;;;;;4990425;28;20026;-81
2021/05/16 03:21:52;;;;;;;7.63;5.85;;;13.60;1.00;;;;;;4993520;28;20508;-81
2021/05/16 03:24:18;;;;;;;8.07;5.88;;;13.40;1.00;;;;;;4992221;28;20102;-81
2021/05/16 03:26:43;;;;;;;7.60;5.88;;;13.50;1.00;;;;;;4994694;28;20089;-81
2021/05/16 03:29:10;;;;;;;8.82;6.18;;;13.50;1.00;;;;;;4992716;28;20406;-81
2021/05/16 03:31:35;;;;;;;9.27;5.93;;;13.90;1.00;;;;;;4993182;28;20041;-81
2021/05/16 03:34:03;;;;;;;7.10;5.43;;;13.70;1.00;;;;;;4992644;28;20038;-81
2021/05/16 03:36:29;;;;;;;6.20;5.60;;;13.40;1.00;;;;;;4993282;28;20493;-81
2021/05/16 03:38:54;;;;;;;5.70;5.20;;;13.90;1.00;;;;;;4993535;28;20034;-81
2021/05/16 03:41:20;;;;;;;8.00;5.53;;;13.90;1.00;;;;;;4995272;28;20026;-80
2021/05/16 03:43:46;;;;;;;6.88;5.72;;;13.50;1.00;;;;;;4993086;28;20023;-81
2021/05/16 03:46:12;;;;;;;7.05;5.43;;;13.60;1.00;;;;;;4993017;28;20026;-81
2021/05/16 03:48:38;;;;;;;6.57;5.80;;;13.60;1.00;;;;;;4992673;28;20046;-81
2021/05/16 03:51:05;;;;;;;6.82;6.13;;;13.60;1.00;;;;;;4993359;28;20023;-81
2021/05/16 03:53:30;;;;;;;9.85;6.40;;;13.60;1.00;;;;;;4994931;28;20095;-81
2021/05/16 03:55:56;;;;;;;7.65;6.10;;;13.60;1.00;;;;;;4992680;28;20045;-81
2021/05/16 03:58:23;;;;;;;8.00;5.90;;;13.80;1.00;;;;;;4992877;28;20046;-81
2021/05/16 04:00:48;;;;;;;7.80;5.90;;;13.70;1.00;;;;;;4992144;28;20061;-81
2021/05/16 04:03:14;;;;;;;8.45;5.85;;;14.10;1.00;;;;;;4992168;28;20051;-81
2021/05/16 04:05:40;;;;;;;7.38;5.78;;;13.70;1.00;;;;;;4993776;28;20116;-81
2021/05/16 04:08:05;;;;;;;7.38;5.40;;;13.50;1.00;;;;;;4992480;28;20134;-81
2021/05/16 04:10:31;;;;;;;7.53;5.60;;;14.10;1.00;;;;;;4992850;28;20384;-81
2021/05/16 04:12:57;;;;;;;6.53;5.47;;;14.10;1.00;;;;;;4992464;28;20038;-80
2021/05/16 04:15:22;;;;;;;8.90;5.90;;;13.80;1.00;;;;;;4992201;28;20031;-81
2021/05/16 04:17:48;;;;;;;7.43;5.50;;;13.80;1.00;;;;;;4993010;28;20076;-81
2021/05/16 04:20:14;;;;;;;6.88;5.10;;;13.50;1.00;;;;;;4994493;28;20022;-81
2021/05/16 04:22:39;;;;;;;7.68;5.72;;;13.60;1.00;;;;;;4992442;28;20081;-81
2021/05/16 04:25:06;;;;;;;8.50;5.43;;;13.60;1.00;;;;;;4992416;28;20486;-81
2021/05/16 04:27:32;;;;;;;9.32;6.32;;;13.60;1.00;;;;;;4975655;28;20454;-81
2021/05/16 04:29:57;;;;;;;8.43;5.85;;;13.70;1.00;;;;;;4991652;28;20026;-80
2021/05/16 04:32:23;;;;;;;11.63;6.82;;;14.10;1.00;;;;;;4994309;28;20121;-81
2021/05/16 04:34:49;;;;;;;6.35;5.50;;;13.80;1.00;;;;;;4992219;28;20029;-81
2021/05/16 04:37:15;;;;;;;6.28;5.68;;;13.90;1.00;;;;;;4992129;28;20498;-81
2021/05/16 04:39:40;;;;;;;8.70;6.22;;;13.70;1.00;;;;;;4992132;28;20019;-81
2021/05/16 04:42:06;;;;;;;6.32;5.57;;;13.90;1.00;;;;;;4991589;28;20113;-81
2021/05/16 04:44:32;;;;;;;8.35;6.00;;;13.70;1.00;;;;;;4994012;28;20022;-81
2021/05/16 04:46:58;;;;;;;7.13;5.82;;;14.10;1.00;;;;;;4986311;28;20058;-80
2021/05/16 04:49:23;;;;;;;6.55;5.22;;;13.80;1.00;;;;;;4992188;28;20121;-81
2021/05/16 04:51:49;;;;;;;5.93;5.18;;;13.90;1.00;;;;;;4991779;28;20031;-81
2021/05/16 04:54:15;;;;;;;5.57;4.97;;;14.00;1.00;;;;;;4992394;28;20538;-81
2021/05/16 04:56:40;;;;;;;5.57;5.07;;;14.00;1.00;;;;;;4993320;28;20023;-81
2021/05/16 04:59:06;;;;;;;7.82;5.18;;;13.90;1.00;;;;;;4992546;28;20031;-81
2021/05/16 05:01:32;;;;;;;7.13;5.15;;;13.90;1.00;;;;;;4991671;28;20060;-81
2021/05/16 05:03:58;;;;;;;5.13;4.63;;;14.00;1.00;;;;;;4992377;28;20414;-81
2021/05/16 05:06:24;;;;;;;6.63;4.70;;;14.00;1.00;;;;;;4991717;28;20487;-81
2021/05/16 05:08:50;;;;;;;5.68;4.78;;;14.30;1.00;;;;;;4991670;28;20081;-81
2021/05/16 05:11:15;;;;;;;5.45;4.82;;;14.20;1.00;;;;;;4993589;28;20022;-81
2021/05/16 05:13:41;;;;;;;6.85;4.65;;;14.00;1.00;;;;;;4991267;28;20045;-81
2021/05/16 05:16:07;;;;;;;6.03;4.78;;;14.10;1.00;;;;;;4991654;28;20034;-81
2021/05/16 05:18:33;;;;;;;5.28;4.13;;;14.10;1.00;;;;;;4991557;28;20406;-80
2021/05/16 05:21:02;;;;;;;8.57;4.45;;;14.60;1.00;;;;;;4991372;28;20502;-81
2021/05/16 05:23:28;;;;;;;5.18;4.57;;;14.20;1.00;;;;;;4993255;28;20038;-81
2021/05/16 05:25:57;;;;;;;5.55;4.57;;;14.20;1.00;;;;;;4990214;28;20037;-81
2021/05/16 05:28:22;;;;;;;5.25;4.75;;;14.60;1.00;;;;;;4990769;28;20076;-80
2021/05/16 05:30:48;;;;;;;6.45;4.53;;;14.30;1.00;;;;;;4975622;28;20030;-80
2021/05/16 05:33:14;;;;;;;6.45;4.40;;;14.40;1.00;;;;;;4991282;28;20038;-81
2021/05/16 05:35:40;;;;;;;5.18;4.55;;;14.20;1.00;;;;;;4991733;28;20095;-80
2021/05/16 05:38:05;;;;;;;6.70;4.63;;;14.30;1.00;;;;;;4992356;28;20031;-81
2021/05/16 05:40:31;;;;;;;7.35;4.88;;;14.20;1.00;;;;;;4991140;28;20065;-82
2021/05/16 05:42:57;;;;;;;10.70;4.95;;;14.20;1.00;;;;;;4989708;28;20037;-81
2021/05/16 05:45:22;;;;;;;6.05;4.43;;;14.30;1.00;;;;;;4990854;28;20050;-81
2021/05/16 05:47:48;;;;;;;5.68;4.47;;;14.30;1.00;;;;;;4991256;28;20384;-79
2021/05/16 05:50:13;;;;;;;5.97;4.60;;;14.30;1.00;;;;;;4992460;28;20161;-80
2021/05/16 05:52:39;;;;;;;7.47;5.22;;;14.20;1.00;;;;;;4990938;28;20034;-80
2021/05/16 05:55:05;;;;;;;8.00;5.35;;;14.10;1.00;;;;;;4990741;28;20018;-80
2021/05/16 05:57:31;;;;;;;5.80;5.28;;;14.00;1.00;;;;;;4990180;28;20369;-80
2021/05/16 05:59:56;;;;;;;7.22;5.53;;;14.40;1.00;;;;;;4990617;28;20023;-80
2021/05/16 06:02:22;;;;;;;8.50;5.15;;;14.10;1.00;;;;;;4992018;28;20084;-81
2021/05/16 06:04:48;;;;;;;5.90;5.20;;;14.10;1.00;;;;;;4989059;28;20037;-81
2021/05/16 06:07:13;;;;;;;5.40;4.80;;;14.10;1.00;;;;;;4977218;28;20482;-81
2021/05/16 06:09:39;;;;;;;11.23;5.80;;;14.10;1.00;;;;;;4990620;28;20101;-81
2021/05/16 06:12:06;;;;;;;5.95;5.00;;;14.40;1.00;;;;;;4989804;28;20454;-81
2021/05/16 06:14:35;;;;;;;6.10;5.05;;;14.20;1.00;;;;;;4993113;28;20073;-81
2021/05/16 06:17:01;;;;;;;5.50;5.00;;;14.30;1.00;;;;;;4989279;28;20511;-81
2021/05/16 06:19:28;;;;;;;5.20;4.70;;;14.50;1.00;;;;;;4990468;28;20041;-80
2021/05/16 06:21:53;;;;;;;5.18;4.63;;;14.50;1.00;;;;;;4989912;28;20065;-81
2021/05/16 06:24:19;;;;;;;4.97;4.40;;;14.60;1.00;;;;;;4990376;28;20049;-81
2021/05/16 06:26:46;;;;;;;4.70;4.20;;;14.70;1.00;;;;;;4990518;28;20026;-80
2021/05/16 06:29:13;;;;;;;7.60;4.35;;;14.70;1.00;;;;;;4992033;28;20026;-81
2021/05/16 06:31:40;;;;;;;4.05;3.67;;;14.80;1.00;;;;;;4989998;28;20030;-80
2021/05/16 06:34:05;;;;;;;4.28;3.55;;;14.80;1.00;;;;;;4990314;28;20027;-81
2021/05/16 06:36:31;;;;;;;6.30;3.75;;;14.80;1.00;;;;;;4990616;28;20445;-80
2021/05/16 06:38:58;;;;;;;5.75;3.72;;;15.10;1.00;;;;;;4989892;28;20023;-80
2021/05/16 06:41:24;;;;;;;3.90;3.50;;;14.80;1.00;;;;;;4991315;28;20022;-80
2021/05/16 06:43:50;;;;;;;3.90;3.60;;;14.80;1.00;;;;;;4975630;28;20027;-80
2021/05/16 06:46:16;;;;;;;4.72;4.07;;;14.60;1.00;;;;;;4990338;28;20379;-80
2021/05/16 06:48:42;;;;;;;3.60;3.30;;;14.70;1.00;;;;;;4989414;28;20073;-80
2021/05/16 06:51:07;;;;;;;2.70;2.50;;;14.80;1.00;;;;;;4990436;28;20089;-81
2021/05/16 06:53:33;;;;;;;4.18;2.85;;;15.20;1.00;;;;;;4993077;28;20042;-80
2021/05/16 06:55:59;;;;;;;3.63;3.22;;;15.20;1.00;;;;;;4994033;28;20081;-80
2021/05/16 06:58:25;;;;;;;3.08;2.58;;;15.10;1.00;;;;;;4993868;28;20446;-81
2021/05/16 07:00:50;;;;;;;2.67;2.42;;;15.40;1.00;;;;;;4993721;28;20030;-81
2021/05/16 07:03:16;;;;;;;4.57;2.40;;;15.30;1.00;;;;;;4994019;28;20034;-81
2021/05/16 07:05:42;;;;;;;3.17;2.88;;;15.80;1.00;;;;;;4994941;28;20080;-81
2021/05/16 07:08:08;;;;;;;3.05;2.30;;;15.70;1.00;;;;;;4995519;28;20034;-81
2021/05/16 07:10:34;;;;;;;2.00;1.80;;;16.10;1.00;;;;;;4993571;28;20496;-80
2021/05/16 07:12:59;;;;;;;2.13;1.77;;;15.70;1.00;;;;;;4993509;28;20396;-81
2021/05/16 07:15:28;;;;;;;1.92;1.70;;;15.60;1.00;;;;;;4993560;28;20033;-80
2021/05/16 07:17:54;;;;;;;1.90;1.60;;;15.40;1.00;;;;;;4993781;28;20038;-80
2021/05/16 07:20:19;;;;;;;4.88;1.90;;;15.40;1.00;;;;;;4994895;28;20030;-81
2021/05/16 07:22:45;;;;;;;1.85;1.40;;;15.50;1.00;;;;;;4992219;28;20034;-81
2021/05/16 07:25:12;;;;;;;2.28;1.45;;;15.50;1.00;;;;;;4992931;28;20399;-81
2021/05/16 07:27:38;;;;;;;2.03;1.60;;;15.50;1.00;;;;;;4993400;28;20034;-80
2021/05/16 07:30:04;;;;;;;2.63;1.60;;;15.70;1.00;;;;;;4993375;28;20019;-81
2021/05/16 07:32:30;;;;;;;1.52;1.42;;;15.40;1.00;;;;;;4990905;28;20039;-81
2021/05/16 07:34:56;;;;;;;1.65;1.30;;;15.60;1.00;;;;;;4980425;28;20046;-81
2021/05/16 07:37:21;;;;;;;1.88;1.65;;;15.50;1.00;;;;;;4993212;28;20038;-81
2021/05/16 07:39:47;;;;;;;3.08;1.58;;;15.50;1.00;;;;;;4992459;28;20441;-81
2021/05/16 07:42:13;;;;;;;1.30;1.20;;;15.40;1.00;;;;;;4992752;28;20105;-82
2021/05/16 07:44:39;;;;;;;1.85;1.63;;;15.40;1.00;;;;;;4994795;28;20478;-82
2021/05/16 07:47:04;;;;;;;1.40;1.27;;;15.60;1.00;;;;;;4993547;28;20022;-82
2021/05/16 07:49:30;;;;;;;1.20;1.10;;;15.40;1.00;;;;;;4983606;28;20050;-83
2021/05/16 07:51:56;;;;;;;1.52;1.40;;;15.30;1.00;;;;;;4990732;28;20038;-80
2021/05/16 07:54:21;;;;;;;1.70;1.60;;;15.40;1.00;;;;;;4991534;28;20042;-80
2021/05/16 07:56:47;;;;;;;1.30;1.20;;;15.90;1.00;;;;;;4992736;28;20019;-80
2021/05/16 07:59:13;;;;;;;1.73;1.45;;;15.60;1.00;;;;;;4992830;28;20445;-80
2021/05/16 08:01:38;;;;;;;1.20;1.10;;;15.70;1.00;;;;;;4978860;28;20045;-80
2021/05/16 08:04:04;;;;;;;1.10;0.90;;;15.90;1.00;;;;;;4992237;28;20117;-79
2021/05/16 08:06:30;;;;;;;0.88;0.88;;;15.80;1.00;;;;;;4992462;28;20117;-80
2021/05/16 08:08:56;;;;;;;1.20;1.10;;;15.50;1.00;;;;;;4992587;28;20031;-81
2021/05/16 08:11:22;;;;;;;1.08;1.00;;;15.60;1.00;;;;;;4989846;28;20109;-80
2021/05/16 08:13:48;;;;;;;1.17;1.10;;;15.60;1.00;;;;;;4979145;28;20125;-80
2021/05/16 08:16:15;;;;;;;1.70;1.00;;;15.80;1.00;;;;;;4992583;28;20084;-80
2021/05/16 08:18:40;;;;;;;1.05;0.90;;;16.00;1.00;;;;;;4992697;28;20126;-80
2021/05/16 08:21:06;;;;;;;1.85;0.82;;;16.10;1.00;;;;;;4991865;28;20109;-82
2021/05/16 08:23:33;;;;;;;2.35;1.20;;;16.00;1.00;;;;;;4993956;28;20026;-83
2021/05/16 08:25:59;;;;;;;1.20;1.00;;;15.80;1.00;;;;;;4991191;28;20034;-80
2021/05/16 08:28:25;;;;;;;0.82;0.80;;;15.90;1.00;;;;;;4992131;28;20105;-81
2021/05/16 08:30:52;;;;;;;1.63;1.42;;;16.00;1.00;;;;;;4993055;28;20457;-81
2021/05/16 08:33:17;;;;;;;1.05;0.98;;;15.90;1.00;;;;;;4991648;28;20108;-80
2021/05/16 08:35:43;;;;;;;1.23;1.00;;;16.00;1.00;;;;;;4993151;28;20478;-81
2021/05/16 08:38:09;;;;;;;0.70;0.70;;;16.20;1.00;;;;;;4990834;28;20026;-80
2021/05/16 08:40:34;;;;;;;0.70;0.70;;;16.10;1.00;;;;;;4990962;28;20038;-80
2021/05/16 08:43:03;;;;;;;0.73;0.73;;;16.30;1.00;;;;;;4992151;28;20390;-81
2021/05/16 08:45:30;;;;;;;1.30;0.70;;;16.30;1.00;;;;;;4992389;28;20029;-80
2021/05/16 08:47:56;;;;;;;0.70;0.70;;;16.80;1.00;;;;;;4991880;28;20498;-80
2021/05/16 08:50:23;;;;;;;0.88;0.63;;;16.40;1.00;;;;;;4993885;28;20110;-81
2021/05/16 08:52:48;;;;;;;1.25;0.90;;;16.50;1.00;;;;;;4990883;28;20510;-80
2021/05/16 08:55:15;;;;;;;2.30;1.40;;;16.60;1.00;;;;;;4991535;28;20033;-81
2021/05/16 08:57:42;;;;;;;0.70;0.57;;;17.00;1.00;;;;;;4991722;28;20027;-80
2021/05/16 09:00:26;;;;;;;0.73;0.60;;;17.00;1.00;;;;;;4987680;28;20034;-77
2021/05/16 09:03:15;;;;;;;0.80;0.70;;;17.00;1.00;;;;;;4991282;28;20442;-80
2021/05/16 09:05:43;;;;;;;1.10;0.80;;;17.00;1.00;;;;;;4989597;28;20526;-79
2021/05/16 09:08:17;;;;;;;0.80;0.80;;;16.90;1.00;;;;;;4992707;28;20046;-80
2021/05/16 09:10:45;;;;;;;0.75;0.57;;;17.00;1.00;;;;;;4989904;28;20045;-83
2021/05/16 09:13:15;;;;;;;0.93;0.93;;;16.90;1.00;;;;;;4991107;28;20407;-82
2021/05/16 09:15:41;;;;;;;1.58;0.70;;;17.10;1.00;;;;;;4990140;28;20026;-81
2021/05/16 09:18:07;;;;;;;1.67;0.90;;;17.20;1.00;;;;;;4989747;28;20030;-81
2021/05/16 09:20:32;;;;;;;2.28;1.10;;;17.00;1.00;;;;;;4993143;28;20027;-81
2021/05/16 09:22:58;;;;;;;1.55;0.90;;;16.90;1.00;;;;;;4991455;28;20031;-81
2021/05/16 09:25:29;;;;;;;0.90;0.90;;;17.40;1.00;;;;;;4990977;28;20058;-81
2021/05/16 09:28:06;;;;;;;1.08;0.85;;;17.40;1.00;;;;;;4990911;28;20026;-81
2021/05/16 09:30:36;;;;;;;0.85;0.80;;;18.00;1.00;;;;;;4990705;28;20056;-80
2021/05/16 09:33:13;;;;;;;0.73;0.60;;;18.30;1.00;;;;;;4991454;28;20047;-81
2021/05/16 09:35:55;;;;;;;1.98;0.70;;;18.10;1.00;;;;;;4988591;28;20073;-82
2021/05/16 09:38:22;;;;;;;1.40;0.60;;;18.30;1.00;;;;;;4991522;28;20026;-79
2021/05/16 09:40:53;;;;;;;1.70;0.70;;;18.20;1.00;;;;;;4991073;28;20414;-79
2021/05/16 09:43:25;;;;;;;1.02;0.90;;;18.10;1.00;;;;;;4990676;28;20046;-78
2021/05/16 09:46:00;;;;;;;0.88;0.80;;;18.10;1.00;;;;;;4990277;28;20525;-79
2021/05/16 09:48:29;;;;;;;0.70;0.70;;;18.10;1.00;;;;;;4990676;28;20081;-79
2021/05/16 09:51:17;;;;;;;2.65;0.90;;;17.90;1.00;;;;;;4991234;28;20113;-79
2021/05/16 09:53:45;;;;;;;0.60;0.60;;;17.80;1.00;;;;;;4989271;28;20046;-80
2021/05/16 09:56:19;;;;;;;0.77;0.77;;;17.80;1.00;;;;;;4990168;28;20081;-79
2021/05/16 09:58:45;;;;;;;0.77;0.70;;;18.00;1.00;;;;;;4989093;28;20031;-78
2021/05/16 10:01:13;;;;;;;0.93;0.82;;;17.80;1.00;;;;;;4990682;28;20031;-78
2021/05/16 10:03:40;;;;;;;0.73;0.70;;;18.30;1.00;;;;;;4990460;28;20483;-78
2021/05/16 10:06:06;;;;;;;0.70;0.70;;;18.10;1.00;;;;;;4990654;28;20027;-78
2021/05/16 10:08:32;;;;;;;0.60;0.60;;;18.20;1.00;;;;;;4992679;28;20027;-78
2021/05/16 10:10:58;;;;;;;0.65;0.65;;;18.20;1.00;;;;;;4990513;28;20026;-78
2021/05/16 10:13:28;;;;;;;0.80;0.80;;;18.20;1.00;;;;;;4990174;28;20422;-78
2021/05/16 10:15:55;;;;;;;0.98;0.88;;;17.90;1.00;;;;;;4990214;28;20461;-78
2021/05/16 10:18:23;;;;;;;0.75;0.73;;;19.00;1.00;;;;;;4990382;28;20030;-78
2021/05/16 10:20:49;;;;;;;0.68;0.68;;;18.70;1.00;;;;;;4990463;28;20402;-77
2021/05/16 10:23:39;;;;;;;1.27;0.63;;;18.90;1.00;;;;;;4992328;28;20050;-84
2021/05/16 10:26:15;;;;;;;0.90;0.70;;;18.70;1.00;;;;;;4989825;28;20037;-82
2021/05/16 10:28:56;;;;;;;0.43;0.43;;;18.60;1.00;;;;;;4990024;28;20030;-79
2021/05/16 10:31:42;;;;;;;0.50;0.50;;;18.80;1.00;;;;;;4989849;28;20030;-85
2021/05/16 10:34:28;;;;;;;1.83;0.60;;;18.50;1.00;;;;;;4988082;28;20137;-84
2021/05/16 10:36:54;;;;;;;2.63;0.63;;;18.30;1.00;;;;;;4988926;28;20031;-83
2021/05/16 10:39:38;;;;;;;0.60;0.60;;;18.30;1.00;;;;;;4990292;28;20109;-84
2021/05/16 10:42:20;;;;;;;1.10;0.70;;;18.80;1.00;;;;;;4974638;28;20117;-86
2021/05/16 10:45:06;;;;;;;2.13;0.80;;;18.70;1.00;;;;;;4990740;28;20061;-86
2021/05/16 10:50:25;;;;;;;1.05;0.80;;;18.90;1.00;;;;;;4991272;28;20069;-82
2021/05/16 10:53:02;;;;;;;0.95;0.93;;;19.40;1.00;;;;;;4989787;28;20066;-78
2021/05/16 10:55:34;;;;;;;0.52;0.52;;;19.10;1.00;;;;;;4989581;28;20573;-79
2021/05/16 10:58:01;;;;;;;1.13;0.82;;;19.50;1.00;;;;;;4990157;28;20034;-79
2021/05/16 11:00:32;;;;;;;0.52;0.52;;;19.40;1.00;;;;;;4990281;28;20394;-79
2021/05/16 11:03:10;;;;;;;0.60;0.40;;;19.40;1.00;;;;;;4989343;28;20036;-80
2021/05/16 11:08:16;;;;;;;0.40;0.40;;;19.00;1.00;;;;;;4989868;28;20026;-81
2021/05/16 11:10:43;;;;;;;0.85;0.57;;;19.00;1.00;;;;;;4989711;28;20030;-81
2021/05/16 11:13:23;;;;;;;0.43;0.35;;;18.60;1.00;;;;;;4988683;28;20042;-80
2021/05/16 11:15:57;;;;;;;0.50;0.50;;;18.70;1.00;;;;;;4987760;28;20532;-78
2021/05/16 11:18:24;;;;;;;3.63;0.63;;;18.60;1.00;;;;;;4989716;28;20534;-81
2021/05/16 11:20:55;;;;;;;0.40;0.40;;;18.40;1.00;;;;;;4989321;28;20033;-79
2021/05/16 11:23:28;;;;;;;0.30;0.30;;;18.70;1.00;;;;;;4991964;28;20023;-79
2021/05/16 11:26:09;;;;;;;1.23;0.50;;;18.80;1.00;;;;;;4989292;28;20418;-78
2021/05/16 11:28:37;;;;;;;0.45;0.45;;;18.90;1.00;;;;;;4989788;28;20105;-80
2021/05/16 11:31:17;;;;;;;0.28;0.28;;;19.20;1.00;;;;;;4989142;28;20030;-85
2021/05/16 11:33:43;;;;;;;0.90;0.50;;;18.90;1.00;;;;;;4989463;28;20069;-79
2021/05/16 11:36:14;;;;;;;0.73;0.47;;;19.10;1.00;;;;;;4989765;28;20030;-79
2021/05/16 11:38:42;;;;;;;1.15;0.40;;;19.10;1.00;;;;;;4991087;28;20027;-78
2021/05/16 11:41:23;;;;;;;0.40;0.40;;;19.60;1.00;;;;;;4992713;28;20060;-77
2021/05/16 11:43:48;;;;;;;0.68;0.63;;;19.90;1.00;;;;;;4992983;28;20376;-77
2021/05/16 11:46:14;;;;;;;0.93;0.52;;;20.00;1.00;;;;;;4992838;28;20121;-78
2021/05/16 11:48:41;;;;;;;0.70;0.60;;;19.70;1.00;;;;;;4993433;28;20046;-78
2021/05/16 11:51:12;;;;;;;0.52;0.43;;;19.70;1.00;;;;;;4991643;28;20049;-78
2021/05/16 11:53:40;;;;;;;0.63;0.40;;;21.70;1.00;;;;;;4994228;28;20047;-78
2021/05/16 11:56:15;;;;;;;0.85;0.50;;;22.90;99.90;;;;;;4994204;28;20038;-78
2021/05/16 11:58:52;;;;;;;0.40;0.40;;;22.50;99.90;;;;;;4993080;28;20034;-78
2021/05/16 12:01:20;;;;;;;0.45;0.40;;;21.90;99.90;;;;;;4992063;28;20514;-78
2021/05/16 12:04:08;;;;;;;0.50;0.32;;;21.70;99.90;;;;;;4992682;28;20033;-78
2021/05/16 12:06:54;;;;;;;0.50;0.40;;;22.30;99.90;;;;;;4992414;28;20023;-77
2021/05/16 12:09:25;;;;;;;0.45;0.43;;;24.30;99.90;;;;;;4979734;28;20030;-78
2021/05/16 12:11:52;;;;;;;0.88;0.40;;;24.80;99.90;;;;;;4992826;28;20029;-78
2021/05/16 12:14:23;;;;;;;0.20;0.20;;;23.60;99.90;;;;;;4994518;28;20516;-78
2021/05/16 12:16:58;;;;;;;0.70;0.57;;;23.60;99.90;;;;;;4993419;28;20085;-78
2021/05/16 12:19:26;;;;;;;0.90;0.30;;;22.30;99.90;;;;;;4992139;28;20031;-78
2021/05/16 12:21:56;;;;;;;0.30;0.30;;;22.60;99.90;;;;;;4992367;28;20022;-78
2021/05/16 12:24:23;;;;;;;0.52;0.45;;;23.10;99.90;;;;;;4992803;28;20026;-78
2021/05/16 12:26:50;;;;;;;0.30;0.30;;;22.70;99.90;;;;;;4992151;28;20022;-78
2021/05/16 12:29:17;;;;;;;2.05;0.38;;;23.10;99.90;;;;;;4993687;28;20494;-78
2021/05/16 12:31:43;;;;;;;0.40;0.40;;;22.10;99.90;;;;;;4990978;28;20410;-78
2021/05/16 12:34:11;;;;;;;2.03;0.40;;;23.60;99.90;;;;;;4991106;28;20181;-78
2021/05/16 12:36:55;;;;;;;1.05;0.50;;;23.50;99.90;;;;;;4991993;28;20030;-78
2021/05/16 12:39:41;;;;;;;0.90;0.45;;;23.40;99.90;;;;;;4992505;28;20029;-78
2021/05/16 12:42:28;;;;;;;0.68;0.50;;;21.60;99.90;;;;;;4977203;28;20023;-78
2021/05/16 12:44:55;;;;;;;0.30;0.30;;;20.90;99.90;;;;;;4992220;28;20047;-79
2021/05/16 12:47:23;;;;;;;0.65;0.60;;;21.60;99.90;;;;;;4994133;28;20037;-78
2021/05/16 12:50:00;;;;;;;1.05;0.50;;;21.70;99.90;;;;;;4991755;28;20081;-78
2021/05/16 12:52:26;;;;;;;0.52;0.52;;;21.30;99.90;;;;;;4991998;28;20092;-78
2021/05/16 12:54:52;;;;;;;1.48;0.70;;;21.90;99.90;;;;;;4992765;28;20117;-78
2021/05/16 12:57:54;;;;;;;0.95;0.75;;;22.00;99.90;;;;;;4991472;28;20049;-78
2021/05/16 13:00:32;;;;;;;3.65;1.08;;;21.20;99.90;;;;;;4979397;28;20038;-78
2021/05/16 13:03:08;;;;;;;0.70;0.70;;;21.10;99.90;;;;;;4991685;28;20589;-78
2021/05/16 13:05:46;;;;;;;0.93;0.73;;;21.50;99.90;;;;;;4990184;28;20446;-78